createdAt,value
2023-04-30T10:13:58.000Z,1.55
2023-04-30T10:16:53.325Z,1.92
2023-04-30T10:19:22.259Z,2.10
2023-04-30T10:21:49.841Z,1.70
2023-04-30T10:24:19.447Z,2.03
2023-04-30T10:26:50.050Z,2.15
2023-04-30T10:29:18.134Z,1.73
2023-04-30T10:31:49.759Z,1.45
2023-04-30T10:34:43.294Z,1.40
2023-04-30T10:37:33.648Z,1.05
2023-04-30T10:40:02.176Z,1.45
2023-04-30T10:42:29.057Z,1.42
2023-04-30T10:44:56.771Z,1.23
2023-04-30T10:47:29.308Z,1.60
2023-04-30T10:52:37.511Z,1.58
2023-04-30T10:55:17.405Z,1.40
2023-04-30T10:57:46.690Z,1.00
2023-04-30T11:00:14.527Z,1.90
2023-04-30T11:02:45.172Z,1.35
2023-04-30T11:05:13.909Z,1.45
2023-04-30T11:08:13.425Z,1.75
2023-04-30T11:10:58.956Z,1.88
2023-04-30T11:13:27.479Z,1.45
2023-04-30T11:15:54.787Z,1.10
2023-04-30T11:18:21.700Z,1.77
2023-04-30T11:20:51.958Z,1.50
2023-04-30T11:23:32.194Z,1.50
2023-04-30T11:26:07.865Z,1.80
2023-04-30T11:28:37.814Z,1.48
2023-04-30T11:31:05.735Z,1.83
2023-04-30T11:33:34.642Z,1.35
2023-04-30T11:36:02.236Z,1.25
2023-04-30T11:38:37.129Z,1.52
2023-04-30T11:41:05.000Z,1.35
2023-04-30T11:43:33.420Z,1.38
2023-04-30T11:46:01.407Z,1.38
2023-04-30T11:48:42.380Z,1.10
2023-04-30T11:51:19.255Z,1.73
2023-04-30T11:53:50.910Z,1.30
2023-04-30T11:56:23.505Z,1.57
2023-04-30T11:58:52.219Z,1.23
2023-04-30T12:01:21.241Z,1.10
2023-04-30T12:03:51.275Z,1.02
2023-04-30T12:06:27.606Z,0.88
2023-04-30T12:08:56.044Z,1.10
2023-04-30T12:11:25.774Z,1.20
2023-04-30T12:13:52.817Z,1.02
2023-04-30T12:16:20.038Z,1.60
2023-04-30T12:18:47.943Z,1.30
2023-04-30T12:21:15.354Z,1.30
2023-04-30T12:23:42.383Z,1.20
2023-04-30T12:26:09.257Z,1.52
2023-04-30T12:28:36.391Z,1.02
2023-04-30T12:31:06.611Z,1.50
2023-04-30T12:33:33.475Z,1.20
2023-04-30T12:36:00.248Z,1.23
2023-04-30T12:38:29.242Z,0.90
2023-04-30T12:40:56.718Z,1.25
2023-04-30T12:43:23.587Z,1.58
2023-04-30T12:45:53.854Z,1.10
2023-04-30T12:48:25.536Z,1.05
2023-04-30T12:51:02.450Z,1.05
2023-04-30T12:53:29.745Z,0.80
2023-04-30T12:56:17.545Z,1.02
2023-04-30T12:58:47.563Z,0.85
2023-04-30T13:01:18.353Z,1.20
2023-04-30T13:03:45.347Z,1.27
2023-04-30T13:06:12.492Z,1.05
2023-04-30T13:08:56.166Z,1.23
2023-04-30T13:11:26.107Z,1.02
2023-04-30T13:13:55.362Z,1.05
2023-04-30T13:16:23.001Z,0.82
2023-04-30T13:18:49.955Z,1.58
2023-04-30T13:21:16.866Z,0.90
2023-04-30T13:23:51.877Z,1.13
2023-04-30T13:26:23.001Z,0.90
2023-04-30T13:28:49.992Z,1.00
2023-04-30T13:31:17.161Z,1.33
2023-04-30T13:33:44.106Z,0.95
2023-04-30T13:36:10.984Z,1.00
2023-04-30T13:38:39.245Z,1.02
2023-04-30T13:41:06.729Z,1.00
2023-04-30T13:43:33.647Z,0.88
2023-04-30T13:46:00.509Z,1.05
2023-04-30T13:48:27.319Z,1.25
2023-04-30T13:50:54.628Z,0.98
2023-04-30T13:53:21.616Z,1.15
2023-04-30T13:55:48.580Z,1.08
2023-04-30T13:58:15.814Z,1.98
2023-04-30T14:00:42.961Z,1.10
2023-04-30T14:03:10.288Z,1.08
2023-04-30T14:05:37.640Z,2.00
2023-04-30T14:08:05.090Z,1.00
2023-04-30T14:10:32.664Z,1.13
2023-04-30T14:12:59.562Z,1.08
2023-04-30T14:15:27.670Z,0.90
2023-04-30T14:17:54.577Z,1.30
2023-04-30T14:20:22.845Z,1.10
2023-04-30T14:22:49.638Z,1.00
2023-04-30T14:25:17.321Z,0.90
2023-04-30T14:27:44.209Z,1.30
2023-04-30T14:30:13.460Z,0.85
2023-04-30T14:32:40.416Z,1.23
2023-04-30T14:35:07.875Z,1.23
2023-04-30T14:37:34.745Z,1.33
2023-04-30T14:40:02.931Z,1.27
2023-04-30T14:42:29.827Z,1.60
2023-04-30T14:44:56.634Z,1.65
2023-04-30T14:47:27.281Z,1.30
2023-04-30T14:49:54.450Z,1.50
2023-04-30T14:52:21.518Z,1.50
2023-04-30T14:54:48.333Z,2.10
2023-04-30T14:57:15.243Z,1.77
2023-04-30T14:59:45.163Z,1.90
2023-04-30T15:02:12.101Z,1.73
2023-04-30T15:04:39.023Z,1.75
2023-04-30T15:07:08.219Z,1.92
2023-04-30T15:09:35.102Z,2.10
2023-04-30T15:12:01.977Z,1.83
2023-04-30T15:14:28.765Z,2.13
2023-04-30T15:16:56.506Z,1.90
2023-04-30T15:19:24.052Z,1.70
2023-04-30T15:21:51.214Z,2.22
2023-04-30T15:24:18.949Z,1.75
2023-04-30T15:26:46.951Z,1.50
2023-04-30T15:29:13.698Z,1.95
2023-04-30T15:31:40.584Z,1.60
2023-04-30T15:34:07.545Z,1.77
2023-04-30T15:36:34.485Z,1.30
2023-04-30T15:39:01.421Z,1.35
2023-04-30T15:41:28.214Z,1.23
2023-04-30T15:43:55.020Z,1.83
2023-04-30T15:46:21.904Z,1.60
2023-04-30T15:48:48.752Z,1.70
2023-04-30T15:51:15.530Z,1.50
2023-04-30T15:53:42.347Z,1.85
2023-04-30T15:56:09.698Z,1.52
2023-04-30T15:58:36.730Z,1.88
2023-04-30T16:01:03.759Z,2.08
2023-04-30T16:03:31.934Z,2.20
2023-04-30T16:06:00.981Z,2.33
2023-04-30T16:08:28.459Z,2.40
2023-04-30T16:10:55.285Z,2.05
2023-04-30T16:13:22.156Z,1.92
2023-04-30T16:15:49.118Z,1.52
2023-04-30T16:18:15.891Z,1.80
2023-04-30T16:20:43.224Z,1.92
2023-04-30T16:23:10.061Z,2.03
2023-04-30T16:25:37.069Z,2.38
2023-04-30T16:28:04.274Z,2.22
2023-04-30T16:30:31.842Z,2.10
2023-04-30T16:32:59.109Z,2.15
2023-04-30T16:35:26.756Z,2.03
2023-04-30T16:37:54.854Z,1.80
2023-04-30T16:40:21.709Z,1.77
2023-04-30T16:42:49.839Z,2.53
2023-04-30T16:45:17.212Z,1.83
2023-04-30T16:47:44.797Z,2.70
2023-04-30T16:50:11.668Z,2.45
2023-04-30T16:52:38.582Z,2.05
2023-04-30T16:55:05.855Z,2.13
2023-04-30T16:57:33.224Z,1.88
2023-04-30T17:00:00.099Z,1.90
2023-04-30T17:02:27.239Z,2.22
2023-04-30T17:04:54.142Z,1.85
2023-04-30T17:07:20.932Z,2.85
2023-04-30T17:09:48.053Z,2.28
2023-04-30T17:12:14.929Z,2.03
2023-04-30T17:14:42.065Z,1.65
2023-04-30T17:17:08.939Z,1.85
2023-04-30T17:19:35.753Z,1.92
2023-04-30T17:22:03.432Z,1.55
2023-04-30T17:24:30.366Z,1.50
2023-04-30T17:26:59.355Z,1.83
2023-04-30T17:29:26.164Z,1.77
2023-04-30T17:31:53.075Z,1.65
2023-04-30T17:34:20.684Z,1.50
2023-04-30T17:36:48.931Z,1.52
2023-04-30T17:39:16.361Z,1.35
2023-04-30T17:41:43.185Z,1.65
2023-04-30T17:44:09.978Z,1.80
2023-04-30T17:46:37.322Z,1.33
2023-04-30T17:49:04.605Z,1.60
2023-04-30T17:51:34.137Z,1.60
2023-04-30T17:54:01.012Z,1.45
2023-04-30T17:56:30.127Z,1.27
2023-04-30T17:58:57.459Z,1.40
2023-04-30T18:01:25.877Z,2.17
2023-04-30T18:03:53.561Z,1.63
2023-04-30T18:06:20.719Z,1.70
2023-04-30T18:08:47.995Z,1.52
2023-04-30T18:11:14.825Z,1.40
2023-04-30T18:13:41.728Z,1.90
2023-04-30T18:16:08.752Z,1.80
2023-04-30T18:18:38.404Z,1.42
2023-04-30T18:21:05.684Z,1.40
2023-04-30T18:23:32.460Z,1.65
2023-04-30T18:25:59.311Z,1.48
2023-04-30T18:28:26.096Z,1.50
2023-04-30T18:30:52.870Z,1.63
2023-04-30T18:33:19.655Z,1.48
2023-04-30T18:35:51.521Z,1.67
2023-04-30T18:38:18.647Z,1.33
2023-04-30T18:40:45.476Z,1.77
2023-04-30T18:43:13.221Z,2.33
2023-04-30T18:45:40.076Z,1.75
2023-04-30T18:48:07.893Z,1.92
2023-04-30T18:50:34.837Z,2.10
2023-04-30T18:53:01.754Z,1.65
2023-04-30T18:55:28.536Z,1.65
2023-04-30T18:57:56.380Z,2.00
2023-04-30T19:00:23.399Z,1.73
2023-04-30T19:02:50.458Z,1.75
2023-04-30T19:05:17.589Z,1.55
2023-04-30T19:07:44.671Z,2.35
2023-04-30T19:10:11.454Z,1.73
2023-04-30T19:12:38.338Z,2.13
2023-04-30T19:15:07.940Z,1.52
2023-04-30T19:17:35.148Z,1.60
2023-04-30T19:20:02.191Z,2.20
2023-04-30T19:22:29.077Z,1.55
2023-04-30T19:24:55.948Z,1.58
2023-04-30T19:27:22.849Z,2.13
2023-04-30T19:29:51.233Z,1.60
2023-04-30T19:32:18.152Z,1.70
2023-04-30T19:34:45.473Z,1.42
2023-04-30T19:37:12.311Z,1.52
2023-04-30T19:39:40.106Z,1.80
